Back to Top

Language: 

My Weather Underground Personal Weather Station Historical Data with Graphs...

Delerius Weather Station Historical Data
Daily Summary for February 4, 2018 Units:  English    Metric   Both
« Previous Day
Next Day »
Daily Weekly Monthly Yearly Custom
  High: Low: Average:
Temperature: 41.2 °F 34.9 °F 36.9 °F
Dew Point: 36.4 °F 30.0 °F 33.1 °F
Humidity: 96 % 73 % 87 %
Wind Speed: 8.0 mph 0.0 mph 3.3 mph
Wind Gust: 14.0 mph - -
Wind:- - ESE
Pressure: 30.49 in 30.03 in -
Precipitation: 0.00 in    
Historical Graphs
 
 
Tabular Data for February 4, 2018
Time Temperature Dew Point Pressure Wind Wind Speed Wind Gust Humidity Rainfall Rate (Hourly) solar Conditions
00:02 37.4 °F 36.4 °F 30.03 in NE 5.0 mph 10.0 mph 96 % 0.00 in 0 W/m2
00:07 37.4 °F 36.4 °F 30.04 in NE 6.0 mph 9.0 mph 96 % 0.00 in 0 W/m2
00:12 37.4 °F 36.4 °F 30.04 in ENE 5.0 mph 10.0 mph 96 % 0.00 in 0 W/m2
00:17 37.4 °F 36.4 °F 30.05 in ENE 6.0 mph 10.0 mph 96 % 0.00 in 0 W/m2
00:22 37.4 °F 36.4 °F 30.05 in ENE 5.0 mph 9.0 mph 96 % 0.00 in 0 W/m2
00:27 37.4 °F 36.4 °F 30.06 in ENE 5.0 mph 10.0 mph 96 % 0.00 in 0 W/m2
00:32 37.2 °F 36.2 °F 30.06 in NE 5.0 mph 8.0 mph 96 % 0.00 in 0 W/m2
00:37 37.2 °F 36.2 °F 30.07 in NNE 4.0 mph 9.0 mph 96 % 0.00 in 0 W/m2
00:42 37.2 °F 36.2 °F 30.07 in NNE 4.0 mph 8.0 mph 96 % 0.00 in 0 W/m2
00:47 37.2 °F 36.2 °F 30.07 in NE 5.0 mph 9.0 mph 96 % 0.00 in 0 W/m2
00:52 37.2 °F 36.2 °F 30.08 in NNE 3.0 mph 6.0 mph 96 % 0.00 in 0 W/m2
00:57 37.2 °F 36.2 °F 30.08 in NE 4.0 mph 8.0 mph 96 % 0.00 in 0 W/m2
01:02 37.2 °F 36.2 °F 30.08 in ENE 2.0 mph 5.0 mph 96 % 0.00 in 0 W/m2
01:07 37.2 °F 36.2 °F 30.09 in NNE 4.0 mph 6.0 mph 96 % 0.00 in 0 W/m2
01:12 37.0 °F 36.0 °F 30.09 in NNE 3.0 mph 7.0 mph 96 % 0.00 in 0 W/m2
01:17 37.0 °F 36.0 °F 30.10 in NNE 4.0 mph 7.0 mph 96 % 0.00 in 0 W/m2
01:22 37.0 °F 36.0 °F 30.10 in North 3.0 mph 6.0 mph 96 % 0.00 in 0 W/m2
01:27 37.0 °F 36.0 °F 30.10 in North 2.0 mph 5.0 mph 96 % 0.00 in 0 W/m2
01:32 37.0 °F 36.0 °F 30.11 in North 2.0 mph 4.0 mph 96 % 0.00 in 0 W/m2
01:37 36.9 °F 35.8 °F 30.11 in North 4.0 mph 7.0 mph 96 % 0.00 in 0 W/m2
01:42 36.9 °F 35.8 °F 30.11 in North 4.0 mph 7.0 mph 96 % 0.00 in 0 W/m2
01:47 36.9 °F 35.8 °F 30.12 in North 2.0 mph 5.0 mph 96 % 0.00 in 0 W/m2
01:52 36.9 °F 35.8 °F 30.12 in North 1.0 mph 5.0 mph 96 % 0.00 in 0 W/m2
01:57 36.9 °F 35.8 °F 30.12 in North 1.0 mph 5.0 mph 96 % 0.00 in 0 W/m2
02:02 36.7 °F 35.6 °F 30.13 in North 3.0 mph 6.0 mph 96 % 0.00 in 0 W/m2
02:07 36.7 °F 35.6 °F 30.13 in NNE 5.0 mph 6.0 mph 96 % 0.00 in 0 W/m2
02:13 36.7 °F 35.6 °F 30.13 in NNE 4.0 mph 7.0 mph 96 % 0.00 in 0 W/m2
02:18 36.7 °F 35.6 °F 30.14 in North 2.0 mph 4.0 mph 96 % 0.00 in 0 W/m2
02:23 36.7 °F 35.6 °F 30.14 in North 2.0 mph 6.0 mph 96 % 0.00 in 0 W/m2
02:28 36.5 °F 35.5 °F 30.14 in NE 2.0 mph 5.0 mph 96 % 0.00 in 0 W/m2
02:33 36.5 °F 35.2 °F 30.14 in North 3.0 mph 6.0 mph 95 % 0.00 in 0 W/m2
02:38 36.3 °F 35.0 °F 30.15 in NNE 1.0 mph 5.0 mph 95 % 0.00 in 0 W/m2
02:43 36.3 °F 35.0 °F 30.15 in North 4.0 mph 6.0 mph 95 % 0.00 in 0 W/m2
02:48 36.3 °F 35.0 °F 30.15 in NNE 3.0 mph 6.0 mph 95 % 0.00 in 0 W/m2
02:53 36.3 °F 35.0 °F 30.15 in North 2.0 mph 7.0 mph 95 % 0.00 in 0 W/m2
02:58 36.3 °F 35.0 °F 30.15 in NNE 3.0 mph 6.0 mph 95 % 0.00 in 0 W/m2
03:03 36.1 °F 34.8 °F 30.15 in NE 1.0 mph 4.0 mph 95 % 0.00 in 0 W/m2
03:08 36.1 °F 34.8 °F 30.16 in ENE 3.0 mph 8.0 mph 95 % 0.00 in 0 W/m2
03:13 36.1 °F 34.8 °F 30.16 in NE 5.0 mph 8.0 mph 95 % 0.00 in 0 W/m2
03:18 36.0 °F 34.7 °F 30.16 in NE 3.0 mph 8.0 mph 95 % 0.00 in 0 W/m2
03:23 36.0 °F 34.7 °F 30.17 in NNE 3.0 mph 9.0 mph 95 % 0.00 in 0 W/m2
03:28 36.0 °F 34.7 °F 30.17 in NNE 4.0 mph 7.0 mph 95 % 0.00 in 0 W/m2
03:33 35.8 °F 34.5 °F 30.17 in NNE 5.0 mph 7.0 mph 95 % 0.00 in 0 W/m2
03:38 35.8 °F 34.5 °F 30.17 in NNE 5.0 mph 11.0 mph 95 % 0.00 in 0 W/m2
03:43 35.8 °F 34.2 °F 30.18 in NE 1.0 mph 7.0 mph 94 % 0.00 in 0 W/m2
03:48 35.8 °F 34.2 °F 30.18 in NE 5.0 mph 8.0 mph 94 % 0.00 in 0 W/m2
03:53 35.6 °F 34.0 °F 30.18 in NE 2.0 mph 5.0 mph 94 % 0.00 in 0 W/m2
03:58 35.6 °F 34.0 °F 30.19 in NE 3.0 mph 7.0 mph 94 % 0.00 in 0 W/m2
04:03 35.6 °F 33.8 °F 30.19 in NE 4.0 mph 8.0 mph 93 % 0.00 in 0 W/m2
04:08 35.4 °F 33.6 °F 30.19 in NE 4.0 mph 7.0 mph 93 % 0.00 in 0 W/m2
04:13 35.4 °F 33.6 °F 30.20 in NNE 4.0 mph 8.0 mph 93 % 0.00 in 0 W/m2
04:18 35.4 °F 33.3 °F 30.20 in NE 3.0 mph 5.0 mph 92 % 0.00 in 0 W/m2
04:23 35.2 °F 33.1 °F 30.21 in NE 2.0 mph 6.0 mph 92 % 0.00 in 0 W/m2
04:24 35.2 °F 33.1 °F 30.21 in NE 2.0 mph 6.0 mph 92 % 0.00 in 0 W/m2
04:29 35.2 °F 33.1 °F 30.21 in NE 4.0 mph 8.0 mph 92 % 0.00 in 0 W/m2
04:34 35.2 °F 33.1 °F 30.22 in NNE 3.0 mph 6.0 mph 92 % 0.00 in 0 W/m2
04:39 35.2 °F 33.1 °F 30.22 in NNE 5.0 mph 7.0 mph 92 % 0.00 in 0 W/m2
04:44 35.2 °F 33.1 °F 30.22 in North 5.0 mph 7.0 mph 92 % 0.00 in 0 W/m2
04:49 35.2 °F 33.1 °F 30.22 in North 1.0 mph 4.0 mph 92 % 0.00 in 0 W/m2
04:54 35.2 °F 33.1 °F 30.22 in NNW 1.0 mph 5.0 mph 92 % 0.00 in 0 W/m2
04:59 35.2 °F 33.1 °F 30.22 in North 3.0 mph 7.0 mph 92 % 0.00 in 0 W/m2
05:04 35.2 °F 33.1 °F 30.23 in NNE 4.0 mph 7.0 mph 92 % 0.00 in 0 W/m2
05:09 35.2 °F 33.1 °F 30.23 in North 4.0 mph 6.0 mph 92 % 0.00 in 0 W/m2
05:14 35.2 °F 33.1 °F 30.24 in North 3.0 mph 6.0 mph 92 % 0.00 in 0 W/m2
05:19 35.2 °F 33.1 °F 30.24 in NNW 3.0 mph 5.0 mph 92 % 0.00 in 0 W/m2
05:24 35.1 °F 33.0 °F 30.24 in North 2.0 mph 5.0 mph 92 % 0.00 in 0 W/m2
05:29 35.1 °F 33.0 °F 30.25 in NNW 2.0 mph 5.0 mph 92 % 0.00 in 0 W/m2
05:34 34.9 °F 32.8 °F 30.25 in NNW 3.0 mph 5.0 mph 92 % 0.00 in 0 W/m2
05:39 34.9 °F 32.8 °F 30.25 in NNW 3.0 mph 6.0 mph 92 % 0.00 in 0 W/m2
05:44 34.9 °F 32.8 °F 30.26 in North 5.0 mph 8.0 mph 92 % 0.00 in 0 W/m2
05:49 34.9 °F 32.8 °F 30.26 in NNW 4.0 mph 8.0 mph 92 % 0.00 in 0 W/m2
05:55 35.1 °F 33.0 °F 30.26 in NNW 4.0 mph 8.0 mph 92 % 0.00 in 0 W/m2
06:00 35.1 °F 33.0 °F 30.27 in NNW 3.0 mph 6.0 mph 92 % 0.00 in 0 W/m2
06:05 35.1 °F 33.0 °F 30.27 in NNW 5.0 mph 7.0 mph 92 % 0.00 in 0 W/m2
06:10 35.1 °F 33.0 °F 30.28 in NNW 4.0 mph 8.0 mph 92 % 0.00 in 0 W/m2
06:15 35.1 °F 33.0 °F 30.28 in NW 3.0 mph 5.0 mph 92 % 0.00 in 0 W/m2
06:20 35.1 °F 33.0 °F 30.28 in NNW 2.0 mph 5.0 mph 92 % 0.00 in 0 W/m2
06:25 35.1 °F 33.0 °F 30.28 in NW 2.0 mph 5.0 mph 92 % 0.00 in 0 W/m2
06:30 35.1 °F 33.0 °F 30.28 in NNW 1.0 mph 2.0 mph 92 % 0.00 in 0 W/m2
06:35 35.1 °F 33.0 °F 30.28 in Calm   1.0 mph 92 % 0.00 in 0 W/m2
06:40 34.9 °F 32.8 °F 30.29 in North 1.0 mph 3.0 mph 92 % 0.00 in 0 W/m2
06:45 34.9 °F 32.8 °F 30.29 in North 2.0 mph 7.0 mph 92 % 0.00 in 0 W/m2
06:50 34.9 °F 33.1 °F 30.29 in North 1.0 mph 4.0 mph 93 % 0.00 in 0 W/m2
06:55 34.9 °F 33.1 °F 30.29 in NNE 3.0 mph 7.0 mph 93 % 0.00 in 0 W/m2
07:00 35.1 °F 33.0 °F 30.29 in Calm   2.0 mph 92 % 0.00 in 0 W/m2
07:05 35.1 °F 33.0 °F 30.30 in North 1.0 mph 5.0 mph 92 % 0.00 in 0 W/m2
07:10 35.1 °F 33.0 °F 30.30 in Calm   1.0 mph 92 % 0.00 in 0 W/m2
07:15 35.2 °F 33.1 °F 30.31 in Calm   1.0 mph 92 % 0.00 in 0 W/m2
07:20 35.2 °F 33.1 °F 30.31 in Calm   3.0 mph 92 % 0.00 in 0 W/m2
07:25 35.2 °F 33.1 °F 30.31 in NNW 4.0 mph 8.0 mph 92 % 0.00 in 0 W/m2
07:30 35.4 °F 33.1 °F 30.32 in NNE 3.0 mph 7.0 mph 91 % 0.00 in 0 W/m2
07:35 35.4 °F 33.1 °F 30.32 in North 5.0 mph 9.0 mph 91 % 0.00 in 0 W/m2
07:40 35.6 °F 33.2 °F 30.33 in NE 3.0 mph 6.0 mph 91 % 0.00 in 0 W/m2
07:45 35.6 °F 33.2 °F 30.33 in NNE 3.0 mph 6.0 mph 91 % 0.00 in 0 W/m2
07:50 35.6 °F 33.2 °F 30.33 in NNE 2.0 mph 6.0 mph 91 % 0.00 in 0 W/m2
07:55 35.6 °F 33.2 °F 30.33 in NNE 2.0 mph 4.0 mph 91 % 0.00 in 5 W/m2
08:00 35.6 °F 33.2 °F 30.34 in NNE 3.0 mph 7.0 mph 91 % 0.00 in 7 W/m2
08:05 35.4 °F 33.1 °F 30.34 in ENE 2.0 mph 5.0 mph 91 % 0.00 in 9 W/m2
08:10 35.4 °F 33.1 °F 30.34 in North 3.0 mph 6.0 mph 91 % 0.00 in 12 W/m2
08:16 35.4 °F 33.1 °F 30.34 in NNE 1.0 mph 3.0 mph 91 % 0.00 in 12 W/m2
08:21 35.4 °F 33.1 °F 30.34 in NNE 2.0 mph 5.0 mph 91 % 0.00 in 18 W/m2
08:26 35.4 °F 33.1 °F 30.35 in NNE 3.0 mph 6.0 mph 91 % 0.00 in 21 W/m2
08:31 35.4 °F 33.1 °F 30.35 in North 2.0 mph 6.0 mph 91 % 0.00 in 25 W/m2
08:36 35.4 °F 33.1 °F 30.35 in NNW 4.0 mph 6.0 mph 91 % 0.00 in 30 W/m2
08:41 35.6 °F 33.2 °F 30.35 in NNW 3.0 mph 6.0 mph 91 % 0.00 in 39 W/m2
08:46 35.6 °F 33.2 °F 30.35 in North 4.0 mph 7.0 mph 91 % 0.00 in 40 W/m2
08:51 35.6 °F 33.2 °F 30.35 in North 3.0 mph 6.0 mph 91 % 0.00 in 47 W/m2
08:56 35.6 °F 33.2 °F 30.36 in NNE 3.0 mph 6.0 mph 91 % 0.00 in 54 W/m2
09:01 35.8 °F 33.4 °F 30.36 in NNE 2.0 mph 6.0 mph 91 % 0.00 in 69 W/m2
09:06 35.8 °F 33.4 °F 30.36 in NNE 5.0 mph 7.0 mph 91 % 0.00 in 56 W/m2
09:11 35.8 °F 33.4 °F 30.36 in NNE 3.0 mph 7.0 mph 91 % 0.00 in 63 W/m2
09:16 35.8 °F 33.4 °F 30.36 in NNE 3.0 mph 6.0 mph 91 % 0.00 in 74 W/m2
09:21 35.8 °F 33.4 °F 30.37 in NNE 4.0 mph 7.0 mph 91 % 0.00 in 88 W/m2
09:26 36.0 °F 33.6 °F 30.37 in NNE 5.0 mph 8.0 mph 91 % 0.00 in 88 W/m2
09:32 36.0 °F 33.6 °F 30.37 in North 5.0 mph 8.0 mph 91 % 0.00 in 90 W/m2
09:37 36.1 °F 34.0 °F 30.38 in North 5.0 mph 9.0 mph 92 % 0.00 in 98 W/m2
09:42 36.1 °F 33.8 °F 30.38 in North 6.0 mph 10.0 mph 91 % 0.00 in 105 W/m2
09:47 36.1 °F 33.8 °F 30.38 in North 6.0 mph 10.0 mph 91 % 0.00 in 149 W/m2
09:52 36.3 °F 34.2 °F 30.38 in North 3.0 mph 7.0 mph 92 % 0.00 in 109 W/m2
09:57 36.3 °F 34.2 °F 30.38 in North 4.0 mph 9.0 mph 92 % 0.00 in 100 W/m2
10:02 36.3 °F 34.2 °F 30.38 in North 3.0 mph 6.0 mph 92 % 0.00 in 98 W/m2
10:07 36.3 °F 34.2 °F 30.38 in NNE 5.0 mph 8.0 mph 92 % 0.00 in 113 W/m2
10:12 36.5 °F 34.4 °F 30.38 in NNE 5.0 mph 8.0 mph 92 % 0.00 in 111 W/m2
10:17 36.7 °F 34.6 °F 30.39 in NNE 5.0 mph 8.0 mph 92 % 0.00 in 104 W/m2
10:22 36.7 °F 34.6 °F 30.39 in NNE 6.0 mph 8.0 mph 92 % 0.00 in 98 W/m2
10:27 36.7 °F 34.3 °F 30.39 in NNE 5.0 mph 8.0 mph 91 % 0.00 in 54 W/m2
10:32 36.9 °F 34.8 °F 30.40 in NNE 5.0 mph 7.0 mph 92 % 0.00 in 53 W/m2
10:37 36.9 °F 34.5 °F 30.40 in NNE 5.0 mph 8.0 mph 91 % 0.00 in 54 W/m2
10:42 36.9 °F 34.5 °F 30.40 in NNE 5.0 mph 8.0 mph 91 % 0.00 in 65 W/m2
10:47 36.9 °F 34.5 °F 30.40 in NNE 5.0 mph 9.0 mph 91 % 0.00 in 90 W/m2
10:52 36.9 °F 34.5 °F 30.40 in NNE 4.0 mph 9.0 mph 91 % 0.00 in 98 W/m2
10:57 36.9 °F 34.5 °F 30.40 in NNE 5.0 mph 10.0 mph 91 % 0.00 in 86 W/m2
11:02 36.9 °F 34.5 °F 30.40 in NNE 7.0 mph 12.0 mph 91 % 0.00 in 93 W/m2
11:07 37.0 °F 34.4 °F 30.40 in NNE 6.0 mph 8.0 mph 90 % 0.00 in 86 W/m2
11:12 37.0 °F 34.4 °F 30.41 in North 3.0 mph 7.0 mph 90 % 0.00 in 109 W/m2
11:17 37.2 °F 34.6 °F 30.41 in North 4.0 mph 7.0 mph 90 % 0.00 in 113 W/m2
11:22 37.4 °F 34.5 °F 30.41 in North 4.0 mph 7.0 mph 89 % 0.00 in 111 W/m2
11:27 37.6 °F 34.3 °F 30.41 in North 2.0 mph 6.0 mph 88 % 0.00 in 120 W/m2
11:32 37.8 °F 34.5 °F 30.41 in North 3.0 mph 7.0 mph 88 % 0.00 in 139 W/m2
11:37 37.9 °F 34.4 °F 30.41 in NNE 4.0 mph 8.0 mph 87 % 0.00 in 146 W/m2
11:42 38.1 °F 34.6 °F 30.41 in North 3.0 mph 7.0 mph 87 % 0.00 in 153 W/m2
11:47 38.5 °F 34.9 °F 30.41 in North 4.0 mph 8.0 mph 87 % 0.00 in 163 W/m2
11:52 38.5 °F 34.7 °F 30.41 in NNE 3.0 mph 5.0 mph 86 % 0.00 in 174 W/m2
11:57 38.7 °F 34.8 °F 30.41 in NNE 5.0 mph 8.0 mph 86 % 0.00 in 163 W/m2
12:02 38.7 °F 34.8 °F 30.41 in NNE 5.0 mph 9.0 mph 86 % 0.00 in 171 W/m2
12:07 38.8 °F 35.0 °F 30.41 in North 5.0 mph 8.0 mph 86 % 0.00 in 186 W/m2
12:12 38.8 °F 35.0 °F 30.41 in NNE 5.0 mph 9.0 mph 86 % 0.00 in 264 W/m2
12:17 39.0 °F 35.2 °F 30.41 in NNE 6.0 mph 9.0 mph 86 % 0.00 in 236 W/m2
12:23 39.0 °F 34.9 °F 30.42 in NNE 4.0 mph 7.0 mph 85 % 0.00 in 323 W/m2
12:28 39.4 °F 35.5 °F 30.42 in NE 1.0 mph 5.0 mph 86 % 0.00 in 315 W/m2
12:33 39.9 °F 36.1 °F 30.42 in NE 5.0 mph 8.0 mph 86 % 0.00 in 234 W/m2
12:38 40.1 °F 35.7 °F 30.41 in ENE 2.0 mph 5.0 mph 84 % 0.00 in 315 W/m2
12:43 40.3 °F 35.5 °F 30.42 in NNE 6.0 mph 10.0 mph 83 % 0.00 in 438 W/m2
12:48 40.3 °F 35.5 °F 30.42 in North 8.0 mph 11.0 mph 83 % 0.00 in 424 W/m2
12:53 40.6 °F 35.6 °F 30.42 in NE 5.0 mph 9.0 mph 82 % 0.00 in 237 W/m2
12:58 40.8 °F 35.7 °F 30.42 in NE 5.0 mph 9.0 mph 82 % 0.00 in 462 W/m2
13:03 41.2 °F 35.8 °F 30.42 in NE 4.0 mph 8.0 mph 81 % 0.00 in 174 W/m2
13:08 41.2 °F 35.5 °F 30.42 in NE 5.0 mph 11.0 mph 80 % 0.00 in 197 W/m2
13:13 41.2 °F 35.2 °F 30.42 in ENE 4.0 mph 12.0 mph 79 % 0.00 in 158 W/m2
13:18 40.8 °F 34.8 °F 30.42 in ENE 5.0 mph 10.0 mph 79 % 0.00 in 183 W/m2
13:23 40.6 °F 34.6 °F 30.42 in NE 6.0 mph 10.0 mph 79 % 0.00 in 186 W/m2
13:28 40.6 °F 34.6 °F 30.42 in NE 8.0 mph 13.0 mph 79 % 0.00 in 120 W/m2
13:33 40.5 °F 34.5 °F 30.42 in NE 7.0 mph 11.0 mph 79 % 0.00 in 120 W/m2
13:38 40.5 °F 34.8 °F 30.42 in NE 4.0 mph 13.0 mph 80 % 0.00 in 135 W/m2
13:43 40.3 °F 34.3 °F 30.43 in ENE 7.0 mph 12.0 mph 79 % 0.00 in 158 W/m2
13:48 40.3 °F 34.3 °F 30.43 in NE 6.0 mph 11.0 mph 79 % 0.00 in 265 W/m2
13:53 40.5 °F 34.5 °F 30.42 in NE 4.0 mph 11.0 mph 79 % 0.00 in 167 W/m2
13:58 40.5 °F 34.5 °F 30.42 in NE 4.0 mph 7.0 mph 79 % 0.00 in 128 W/m2
14:03 40.5 °F 34.1 °F 30.43 in NE 7.0 mph 14.0 mph 78 % 0.00 in 158 W/m2
14:08 40.5 °F 34.1 °F 30.43 in NNE 2.0 mph 6.0 mph 78 % 0.00 in 383 W/m2
14:13 40.8 °F 34.2 °F 30.43 in NE 7.0 mph 13.0 mph 77 % 0.00 in 269 W/m2
14:18 40.8 °F 33.8 °F 30.43 in NE 7.0 mph 12.0 mph 76 % 0.00 in 169 W/m2
14:23 41.0 °F 34.0 °F 30.43 in NE 7.0 mph 12.0 mph 76 % 0.00 in 316 W/m2
14:28 41.0 °F 34.0 °F 30.43 in ENE 5.0 mph 10.0 mph 76 % 0.00 in 236 W/m2
14:33 40.8 °F 33.8 °F 30.43 in NE 4.0 mph 8.0 mph 76 % 0.00 in 83 W/m2
14:38 40.8 °F 33.8 °F 30.43 in NE 4.0 mph 9.0 mph 76 % 0.00 in 146 W/m2
14:43 41.2 °F 34.2 °F 30.43 in NE 3.0 mph 11.0 mph 76 % 0.00 in 299 W/m2
14:48 41.2 °F 33.5 °F 30.43 in NNE 5.0 mph 12.0 mph 74 % 0.00 in 206 W/m2
14:53 41.2 °F 33.5 °F 30.43 in ENE 4.0 mph 9.0 mph 74 % 0.00 in 102 W/m2
14:58 41.2 °F 33.2 °F 30.43 in NNE 4.0 mph 8.0 mph 73 % 0.00 in 74 W/m2
15:03 40.8 °F 32.8 °F 30.43 in NE 4.0 mph 8.0 mph 73 % 0.00 in 39 W/m2
15:09 40.6 °F 32.7 °F 30.44 in NE 4.0 mph 8.0 mph 73 % 0.00 in 35 W/m2
15:14 40.5 °F 32.8 °F 30.43 in ENE 3.0 mph 8.0 mph 74 % 0.00 in 39 W/m2
15:19 40.3 °F 33.0 °F 30.44 in ENE 3.0 mph 6.0 mph 75 % 0.00 in 37 W/m2
15:24 40.1 °F 32.8 °F 30.44 in ENE 4.0 mph 7.0 mph 75 % 0.00 in 42 W/m2
15:29 39.9 °F 32.6 °F 30.44 in NE 5.0 mph 10.0 mph 75 % 0.00 in 44 W/m2
15:34 39.9 °F 33.0 °F 30.44 in NE 2.0 mph 6.0 mph 76 % 0.00 in 30 W/m2
15:39 39.9 °F 32.6 °F 30.44 in NE 4.0 mph 8.0 mph 75 % 0.00 in 37 W/m2
15:44 39.7 °F 32.1 °F 30.44 in NE 4.0 mph 8.0 mph 74 % 0.00 in 39 W/m2
15:49 39.6 °F 32.0 °F 30.44 in ENE 2.0 mph 7.0 mph 74 % 0.00 in 42 W/m2
15:54 39.6 °F 32.0 °F 30.44 in NE 4.0 mph 8.0 mph 74 % 0.00 in 53 W/m2
15:59 39.4 °F 31.4 °F 30.45 in NE 4.0 mph 7.0 mph 73 % 0.00 in 40 W/m2
16:04 39.4 °F 31.4 °F 30.45 in NE 2.0 mph 6.0 mph 73 % 0.00 in 30 W/m2
16:09 39.4 °F 31.4 °F 30.45 in NE 2.0 mph 7.0 mph 73 % 0.00 in 25 W/m2
16:14 39.4 °F 31.8 °F 30.45 in NE 5.0 mph 9.0 mph 74 % 0.00 in 21 W/m2
16:19 39.2 °F 31.6 °F 30.45 in NNE 3.0 mph 9.0 mph 74 % 0.00 in 23 W/m2
16:24 39.0 °F 31.4 °F 30.45 in ENE 2.0 mph 6.0 mph 74 % 0.00 in 18 W/m2
16:29 39.0 °F 31.8 °F 30.45 in North 2.0 mph 5.0 mph 75 % 0.00 in 14 W/m2
16:34 38.8 °F 31.3 °F 30.46 in NNE 4.0 mph 9.0 mph 74 % 0.00 in 12 W/m2
16:39 38.7 °F 31.1 °F 30.46 in NNE 2.0 mph 7.0 mph 74 % 0.00 in 9 W/m2
16:44 38.5 °F 30.6 °F 30.46 in NE 4.0 mph 10.0 mph 73 % 0.00 in 7 W/m2
16:49 38.3 °F 30.4 °F 30.46 in NE 5.0 mph 9.0 mph 73 % 0.00 in 0 W/m2
16:54 38.1 °F 30.2 °F 30.46 in ENE 1.0 mph 4.0 mph 73 % 0.00 in 0 W/m2
16:59 38.1 °F 30.2 °F 30.46 in North 3.0 mph 7.0 mph 73 % 0.00 in 0 W/m2
17:04 38.1 °F 30.2 °F 30.46 in Calm   2.0 mph 73 % 0.00 in 0 W/m2
17:09 37.9 °F 30.1 °F 30.46 in NNE 2.0 mph 7.0 mph 73 % 0.00 in 0 W/m2
17:14 37.9 °F 30.1 °F 30.46 in North 3.0 mph 5.0 mph 73 % 0.00 in 0 W/m2
17:19 37.9 °F 30.1 °F 30.46 in North 1.0 mph 4.0 mph 73 % 0.00 in 0 W/m2
17:24 37.8 °F 30.2 °F 30.46 in North 2.0 mph 5.0 mph 74 % 0.00 in 0 W/m2
17:29 37.6 °F 30.0 °F 30.46 in Calm   2.0 mph 74 % 0.00 in 0 W/m2
17:34 37.4 °F 30.2 °F 30.46 in North 1.0 mph 5.0 mph 75 % 0.00 in 0 W/m2
17:39 37.0 °F 30.2 °F 30.46 in North 4.0 mph 8.0 mph 76 % 0.00 in 0 W/m2
17:44 37.0 °F 30.2 °F 30.46 in North 2.0 mph 5.0 mph 76 % 0.00 in 0 W/m2
17:49 36.9 °F 30.0 °F 30.46 in NNW 1.0 mph 5.0 mph 76 % 0.00 in 0 W/m2
17:54 36.7 °F 30.1 °F 30.46 in North 4.0 mph 7.0 mph 77 % 0.00 in 0 W/m2
17:59 36.7 °F 30.5 °F 30.47 in NNW 1.0 mph 4.0 mph 78 % 0.00 in 0 W/m2
18:04 36.7 °F 30.5 °F 30.47 in NNW 3.0 mph 6.0 mph 78 % 0.00 in 0 W/m2
18:09 36.7 °F 30.8 °F 30.47 in NNW 4.0 mph 7.0 mph 79 % 0.00 in 0 W/m2
18:14 36.5 °F 30.6 °F 30.47 in NNW 4.0 mph 6.0 mph 79 % 0.00 in 0 W/m2
18:19 36.3 °F 30.4 °F 30.47 in North 3.0 mph 6.0 mph 79 % 0.00 in 0 W/m2
18:25 36.1 °F 30.3 °F 30.47 in North 2.0 mph 7.0 mph 79 % 0.00 in 0 W/m2
18:30 36.1 °F 30.6 °F 30.47 in NNW 4.0 mph 7.0 mph 80 % 0.00 in 0 W/m2
18:35 36.0 °F 30.4 °F 30.47 in NNW 5.0 mph 8.0 mph 80 % 0.00 in 0 W/m2
18:40 36.1 °F 30.9 °F 30.47 in North 2.0 mph 6.0 mph 81 % 0.00 in 0 W/m2
18:45 36.1 °F 30.9 °F 30.47 in North 3.0 mph 7.0 mph 81 % 0.00 in 0 W/m2
18:50 36.1 °F 30.9 °F 30.47 in North 3.0 mph 9.0 mph 81 % 0.00 in 0 W/m2
18:55 36.1 °F 30.9 °F 30.47 in North 2.0 mph 5.0 mph 81 % 0.00 in 0 W/m2
19:00 36.1 °F 30.9 °F 30.47 in NNE 4.0 mph 7.0 mph 81 % 0.00 in 0 W/m2
19:05 36.0 °F 30.7 °F 30.47 in NNE 3.0 mph 7.0 mph 81 % 0.00 in 0 W/m2
19:10 36.0 °F 30.7 °F 30.47 in NNE 3.0 mph 7.0 mph 81 % 0.00 in 0 W/m2
19:15 36.0 °F 30.7 °F 30.48 in North 2.0 mph 6.0 mph 81 % 0.00 in 0 W/m2
19:20 36.0 °F 30.4 °F 30.48 in NNE 4.0 mph 7.0 mph 80 % 0.00 in 0 W/m2
19:25 36.0 °F 30.4 °F 30.48 in NNE 2.0 mph 5.0 mph 80 % 0.00 in 0 W/m2
19:30 36.0 °F 30.7 °F 30.48 in North 2.0 mph 6.0 mph 81 % 0.00 in 0 W/m2
19:35 36.1 °F 30.9 °F 30.48 in North 4.0 mph 7.0 mph 81 % 0.00 in 0 W/m2
19:40 36.0 °F 30.7 °F 30.48 in NNE 3.0 mph 7.0 mph 81 % 0.00 in 0 W/m2
19:45 36.0 °F 31.0 °F 30.48 in North 2.0 mph 7.0 mph 82 % 0.00 in 0 W/m2
19:50 36.0 °F 31.0 °F 30.48 in North 2.0 mph 5.0 mph 82 % 0.00 in 0 W/m2
19:55 36.0 °F 31.3 °F 30.48 in North 4.0 mph 8.0 mph 83 % 0.00 in 0 W/m2
20:00 36.0 °F 31.3 °F 30.48 in North 3.0 mph 7.0 mph 83 % 0.00 in 0 W/m2
20:05 36.0 °F 31.3 °F 30.48 in North 5.0 mph 8.0 mph 83 % 0.00 in 0 W/m2
20:10 35.8 °F 31.4 °F 30.48 in North 2.0 mph 6.0 mph 84 % 0.00 in 0 W/m2
20:15 35.8 °F 31.4 °F 30.48 in North 4.0 mph 7.0 mph 84 % 0.00 in 0 W/m2
20:20 35.8 °F 31.7 °F 30.48 in North 2.0 mph 7.0 mph 85 % 0.00 in 0 W/m2
20:25 35.8 °F 31.7 °F 30.48 in North 2.0 mph 5.0 mph 85 % 0.00 in 0 W/m2
20:30 35.8 °F 31.7 °F 30.48 in NNE 2.0 mph 5.0 mph 85 % 0.00 in 0 W/m2
20:35 35.8 °F 31.7 °F 30.48 in North 3.0 mph 5.0 mph 85 % 0.00 in 0 W/m2
20:40 35.8 °F 31.7 °F 30.48 in North 1.0 mph 5.0 mph 85 % 0.00 in 0 W/m2
20:45 35.6 °F 31.5 °F 30.48 in North 2.0 mph 6.0 mph 85 % 0.00 in 0 W/m2
20:50 35.6 °F 31.8 °F 30.48 in North 2.0 mph 6.0 mph 86 % 0.00 in 0 W/m2
20:55 35.6 °F 31.8 °F 30.48 in North 3.0 mph 6.0 mph 86 % 0.00 in 0 W/m2
21:00 35.6 °F 31.8 °F 30.49 in Calm   2.0 mph 86 % 0.00 in 0 W/m2
21:05 35.6 °F 31.8 °F 30.48 in NNE 4.0 mph 7.0 mph 86 % 0.00 in 0 W/m2
21:10 35.4 °F 31.4 °F 30.48 in NNE 5.0 mph 8.0 mph 85 % 0.00 in 0 W/m2
21:15 35.6 °F 31.8 °F 30.49 in NNE 3.0 mph 7.0 mph 86 % 0.00 in 0 W/m2
21:20 35.4 °F 31.6 °F 30.49 in North 4.0 mph 6.0 mph 86 % 0.00 in 0 W/m2
21:25 35.4 °F 31.6 °F 30.49 in North 2.0 mph 6.0 mph 86 % 0.00 in 0 W/m2
21:30 35.4 °F 31.6 °F 30.49 in North 2.0 mph 6.0 mph 86 % 0.00 in 0 W/m2
21:35 35.4 °F 31.6 °F 30.49 in North 2.0 mph 5.0 mph 86 % 0.00 in 0 W/m2
21:41 35.4 °F 31.6 °F 30.49 in North 4.0 mph 7.0 mph 86 % 0.00 in 0 W/m2
21:46 35.4 °F 31.6 °F 30.49 in North 2.0 mph 6.0 mph 86 % 0.00 in 0 W/m2
21:51 35.4 °F 31.6 °F 30.48 in NNE 2.0 mph 5.0 mph 86 % 0.00 in 0 W/m2
21:56 35.4 °F 31.6 °F 30.48 in North 2.0 mph 6.0 mph 86 % 0.00 in 0 W/m2
22:01 35.4 °F 31.6 °F 30.48 in North 4.0 mph 7.0 mph 86 % 0.00 in 0 W/m2
22:06 35.4 °F 31.4 °F 30.48 in North 5.0 mph 8.0 mph 85 % 0.00 in 0 W/m2
22:11 35.4 °F 31.4 °F 30.48 in North 4.0 mph 7.0 mph 85 % 0.00 in 0 W/m2
22:16 35.4 °F 31.4 °F 30.48 in North 5.0 mph 8.0 mph 85 % 0.00 in 0 W/m2
22:21 35.4 °F 31.4 °F 30.48 in NNE 2.0 mph 5.0 mph 85 % 0.00 in 0 W/m2
22:26 35.4 °F 31.4 °F 30.48 in NNE 1.0 mph 5.0 mph 85 % 0.00 in 0 W/m2
22:31 35.4 °F 31.4 °F 30.47 in North 2.0 mph 5.0 mph 85 % 0.00 in 0 W/m2
22:36 35.4 °F 31.4 °F 30.47 in North 2.0 mph 5.0 mph 85 % 0.00 in 0 W/m2
22:41 35.2 °F 31.2 °F 30.47 in NNE 2.0 mph 5.0 mph 85 % 0.00 in 0 W/m2
22:46 35.2 °F 31.2 °F 30.47 in North 2.0 mph 7.0 mph 85 % 0.00 in 0 W/m2
22:51 35.2 °F 31.2 °F 30.47 in North 2.0 mph 5.0 mph 85 % 0.00 in 0 W/m2
22:56 35.2 °F 31.2 °F 30.47 in NW 1.0 mph 2.0 mph 85 % 0.00 in 0 W/m2
23:01 35.2 °F 31.2 °F 30.47 in NNW 1.0 mph 4.0 mph 85 % 0.00 in 0 W/m2
23:06 35.2 °F 31.2 °F 30.47 in NNE 4.0 mph 6.0 mph 85 % 0.00 in 0 W/m2
23:11 35.2 °F 31.2 °F 30.48 in North 3.0 mph 6.0 mph 85 % 0.00 in 0 W/m2
23:16 35.2 °F 31.2 °F 30.47 in North 3.0 mph 6.0 mph 85 % 0.00 in 0 W/m2
23:21 35.2 °F 31.2 °F 30.47 in North 2.0 mph 6.0 mph 85 % 0.00 in 0 W/m2
23:26 35.2 °F 31.2 °F 30.48 in North 1.0 mph 5.0 mph 85 % 0.00 in 0 W/m2
23:27 35.2 °F 31.2 °F 30.48 in North 2.0 mph 6.0 mph 85 % 0.00 in 0 W/m2
23:32 35.2 °F 31.2 °F 30.47 in NNW 3.0 mph 6.0 mph 85 % 0.00 in 0 W/m2
23:37 35.2 °F 31.2 °F 30.47 in North 3.0 mph 7.0 mph 85 % 0.00 in 0 W/m2
23:42 35.2 °F 31.2 °F 30.47 in North 3.0 mph 6.0 mph 85 % 0.00 in 0 W/m2
23:47 35.2 °F 31.2 °F 30.47 in North 4.0 mph 7.0 mph 85 % 0.00 in 0 W/m2
23:52 35.2 °F 31.2 °F 30.47 in North 3.0 mph 6.0 mph 85 % 0.00 in 0 W/m2
23:57 35.2 °F 31.2 °F 30.47 in NNW 4.0 mph 7.0 mph 85 % 0.00 in 0 W/m2
Delerius-Weather
Compliments of Weather Underground - 2.25 mb

Data updates at regular intervals.